Aérodrome :
LOGIN :

S'inscrire | Disclaimer

   EN    FR    IT 

 










Légende :    VFR   VFR Marginal   IFR   IFR Intensif   IFR Très Intensif
Visi : 
Plafond : 
>= 8 km
>= 3000ft
5 à 8 km
1000 à 3000 ft
1500m à 5 km
500 à 1000 ft
800 à 1500m
200 à 500 ft
< 800m
< 200 ft
Symboles :   Orages  Brouillard  Fortes neiges  Fortes précipitations  Vent > 20 kt
SIGMETs :   Divers  Orages  Givrage  Turbulence  Onde Orograph.  Cendres Volcan.






- Altitude de l'aérodrome : 682 ft
- Code IATA : VTB


UMII - Vitebsk

DERNIER METAR :
  • 251200Z 19004MPS CAVOK 04/M05 Q1001 R23/710369 NOSIG

METARs EXPIRÉS :
  • 251130Z 20004MPS CAVOK 03/M04 Q1001 R23/710369 NOSIG
  • 251100Z 20004MPS 9999 FEW033 03/M04 Q1001 R23/710369 NOSIG
  • 251030Z 21005MPS 9999 FEW033 02/M03 Q1002 R23/710448 NOSIG
  • 251000Z 21005MPS 9999 FEW040 02/M03 Q1002 R23/710448 NOSIG

TAF TAF UMII
Valide du 25 à 12h jusqu'au 25 à 21h UTC


251109Z 2512/2521 19003G08MPS 6000 BKN007
TEMPO 2512/2518 VRB09MPS 2000 SHRASN BR BKN005 BKN010CB
TEMPO 2518/2521 18007G12MPS 1000 SHRASN BR BKN003 BKN010CB



MET'MAP, la Météo Aéronautique d'un coup d'oeil ! - Copyright ORBIFLY Décembre 2007 - Disclaimer

ORBIFLY MET'MAP TEAM :

Programmation & Développement : Alexandra Zaïnal
Sur une idée originale de : Baudouin d'Aumeries
Assistance à la programmation : Marc-Olivier Méhu
Soutien technique & logistique : Manuel Goepfert

Contact : metmap@orbifly.com




SOURCES & CREDITS :

   NOAA